Time;durP1;ratioP1;P1;durP2;ratioP2;P2;SDS_P1;SDS_P2;PMS_P1;PMS_P2;Temp;Humidity;BMP_temperature;BMP_pressure;BME280_temperature;BME280_humidity;BME280_pressure;Samples;Min_cycle;Max_cycle;Signal;HPM_P1;HPM_P2
2023/08/27 00:01:30;;;;;;;8.07;7.47;;;;;;;28.48;44.76;94948.28;6113648;28;110246;-67
2023/08/27 00:04:33;;;;;;;8.23;7.63;;;;;;;28.47;45.47;94952.13;6104960;28;109785;-67
2023/08/27 00:07:36;;;;;;;8.40;7.80;;;;;;;28.46;44.98;94955.94;6108937;28;109593;-67
2023/08/27 00:10:41;;;;;;;8.32;7.72;;;;;;;28.48;45.01;94958.28;6113361;28;109508;-67
2023/08/27 00:13:44;;;;;;;8.30;7.70;;;;;;;28.46;45.11;94949.78;6113344;28;110051;-68
2023/08/27 00:16:47;;;;;;;7.60;7.10;;;;;;;28.45;45.40;94948.97;6102890;28;110084;-67
2023/08/27 00:19:50;;;;;;;8.30;7.70;;;;;;;28.45;45.12;94942.81;6113342;28;109814;-68
2023/08/27 00:22:53;;;;;;;8.00;7.40;;;;;;;28.46;44.78;94923.63;6112631;28;110196;-66
2023/08/27 00:25:58;;;;;;;7.60;7.10;;;;;;;28.42;44.99;94922.75;6113316;28;110008;-68
2023/08/27 00:29:01;;;;;;;8.00;7.40;;;;;;;28.44;44.84;94919.72;6101517;28;109799;-66
2023/08/27 00:32:05;;;;;;;7.97;7.43;;;;;;;28.41;45.41;94931.97;6112468;28;109830;-67
2023/08/27 00:35:26;;;;;;;7.90;7.30;;;;;;;28.44;45.55;94923.19;6099831;28;109673;-67
2023/08/27 00:38:29;;;;;;;7.83;7.33;;;;;;;28.44;45.11;94928.56;6107296;28;110043;-68
2023/08/27 00:41:33;;;;;;;7.65;7.15;;;;;;;28.44;45.11;94923.19;6107671;28;110038;-67
2023/08/27 00:44:37;;;;;;;7.67;7.17;;;;;;;28.44;45.35;94928.56;6111767;28;112306;-67
2023/08/27 00:47:41;;;;;;;7.50;7.00;;;;;;;28.43;45.04;94916.22;6112438;28;110631;-67
2023/08/27 00:50:44;;;;;;;7.80;7.20;;;;;;;28.43;44.73;94902.78;6101878;28;110602;-67
2023/08/27 00:53:48;;;;;;;7.53;7.03;;;;;;;28.40;45.11;94905.38;6113154;28;112176;-67
2023/08/27 00:56:52;;;;;;;7.50;7.00;;;;;;;28.41;45.32;94913.13;6113021;28;112705;-67
2023/08/27 00:59:58;;;;;;;7.15;6.65;;;;;;;28.40;45.44;94913.47;6101918;28;109782;-67
2023/08/27 01:03:01;;;;;;;7.10;6.60;;;;;;;28.40;45.03;94908.88;6101173;28;109793;-67
2023/08/27 01:06:05;;;;;;;7.50;7.00;;;;;;;28.41;45.44;94906.94;6112383;28;109753;-67
2023/08/27 01:09:13;;;;;;;7.17;6.67;;;;;;;28.41;44.92;94905.03;6112607;28;109679;-68
2023/08/27 01:12:24;;;;;;;7.18;6.68;;;;;;;28.40;44.93;94906.16;6108564;28;110834;-67
2023/08/27 01:15:28;;;;;;;7.20;6.70;;;;;;;28.40;45.00;94908.09;6090501;28;109759;-67
2023/08/27 01:18:32;;;;;;;7.20;6.70;;;;;;;28.40;45.48;94900.78;6112078;28;110640;-68
2023/08/27 01:21:36;;;;;;;6.95;6.45;;;;;;;28.41;45.35;94915.81;6111374;28;109936;-68
2023/08/27 01:24:40;;;;;;;7.15;6.65;;;;;;;28.38;45.21;94905.72;6100943;28;109839;-68
2023/08/27 01:27:50;;;;;;;7.20;6.70;;;;;;;28.39;45.28;94907.28;6111994;28;109982;-67
2023/08/27 01:31:00;;;;;;;7.03;6.53;;;;;;;28.39;44.88;94901.88;6111861;28;109928;-67
2023/08/27 01:34:05;;;;;;;7.30;6.80;;;;;;;28.39;45.88;94904.59;6110982;28;109824;-68
2023/08/27 01:37:12;;;;;;;6.70;6.20;;;;;;;28.37;45.27;94904.16;6100443;28;110035;-68
2023/08/27 01:40:18;;;;;;;6.10;5.70;;;;;;;28.37;45.21;94904.16;6112007;28;109913;-67
2023/08/27 01:43:22;;;;;;;7.10;6.60;;;;;;;28.35;45.63;94909.09;6111388;28;110328;-68
2023/08/27 01:46:25;;;;;;;7.10;6.60;;;;;;;28.38;45.61;94905.72;6106788;28;109845;-69
2023/08/27 01:49:28;;;;;;;6.80;6.30;;;;;;;28.37;45.28;94920.31;6105588;28;109635;-67
2023/08/27 01:52:35;;;;;;;6.90;6.40;;;;;;;28.37;45.27;94920.31;6111057;28;109718;-67
2023/08/27 01:55:39;;;;;;;6.70;6.20;;;;;;;28.37;45.46;94925.69;6111048;28;109700;-67
2023/08/27 01:58:42;;;;;;;6.70;6.20;;;;;;;28.38;44.95;94921.88;6100457;28;109912;-67
2023/08/27 02:01:45;;;;;;;6.82;6.32;;;;;;;28.37;44.96;94917.63;6111571;28;109952;-67
2023/08/27 02:04:48;;;;;;;6.30;5.90;;;;;;;28.35;45.35;94909.88;6110361;28;109787;-67
2023/08/27 02:07:53;;;;;;;6.80;6.30;;;;;;;28.36;45.53;94913.34;6111474;28;109817;-67
2023/08/27 02:10:56;;;;;;;6.30;5.90;;;;;;;28.35;45.15;94914.50;6100288;28;109604;-68
2023/08/27 02:13:59;;;;;;;6.43;6.03;;;;;;;28.34;45.36;94912.94;6111224;28;110114;-67
2023/08/27 02:17:02;;;;;;;6.50;6.00;;;;;;;28.34;45.40;94904.84;6111421;28;109698;-68
2023/08/27 02:20:09;;;;;;;6.40;6.00;;;;;;;28.33;45.39;94906.00;6111142;28;111878;-66
2023/08/27 02:23:14;;;;;;;6.60;6.10;;;;;;;28.34;45.42;94899.47;6101363;28;110849;-66
2023/08/27 02:26:17;;;;;;;6.20;5.80;;;;;;;28.32;45.60;94907.13;6112170;28;109793;-66
2023/08/27 02:29:22;;;;;;;6.45;6.00;;;;;;;28.32;45.33;94902.53;6111361;28;109433;-66
2023/08/27 02:32:25;;;;;;;6.57;6.07;;;;;;;28.31;45.60;94911.72;6101478;28;109943;-67
2023/08/27 02:35:28;;;;;;;6.40;5.90;;;;;;;28.31;45.75;94910.94;6109522;28;109898;-67
2023/08/27 02:38:33;;;;;;;6.30;5.90;;;;;;;28.31;45.24;94900.19;6111177;28;109824;-67
2023/08/27 02:41:36;;;;;;;6.45;6.05;;;;;;;28.30;45.78;94904.78;6110704;28;110205;-67
2023/08/27 02:44:40;;;;;;;6.35;5.95;;;;;;;28.31;45.46;94900.19;6100176;28;109986;-66
2023/08/27 02:47:43;;;;;;;6.60;6.10;;;;;;;28.32;45.90;94893.66;6110506;28;110214;-67
2023/08/27 02:50:46;;;;;;;6.10;5.70;;;;;;;28.31;45.30;94892.09;6110728;28;109908;-67
2023/08/27 02:53:51;;;;;;;6.10;5.70;;;;;;;28.27;45.59;94900.09;6110780;28;109596;-67
2023/08/27 02:56:54;;;;;;;6.15;5.75;;;;;;;28.29;45.54;94897.84;6099748;28;110079;-67
2023/08/27 02:59:57;;;;;;;5.80;5.40;;;;;;;28.30;45.93;94899.41;6110470;28;109925;-66
2023/08/27 03:03:00;;;;;;;5.90;5.50;;;;;;;28.29;45.74;94897.06;6110352;28;110109;-67
2023/08/27 03:06:04;;;;;;;6.03;5.63;;;;;;;28.27;45.59;94897.41;6106400;28;109786;-67
2023/08/27 03:09:08;;;;;;;5.60;5.20;;;;;;;28.30;45.27;94904.00;6109097;28;109690;-67
2023/08/27 03:12:11;;;;;;;6.32;5.82;;;;;;;28.26;45.59;94895.84;6098816;28;109829;-67
2023/08/27 03:15:14;;;;;;;6.00;5.60;;;;;;;28.27;45.63;94902.00;6114313;28;108786;-67
2023/08/27 03:18:17;;;;;;;6.05;5.60;;;;;;;28.27;45.81;94905.47;6104410;28;109869;-67
2023/08/27 03:21:21;;;;;;;5.80;5.40;;;;;;;28.26;45.08;94901.22;6097940;28;109962;-67
2023/08/27 03:24:25;;;;;;;6.00;5.50;;;;;;;28.28;45.76;94900.88;6114407;28;110439;-67
2023/08/27 03:27:29;;;;;;;5.50;5.10;;;;;;;28.27;45.11;94899.31;6114401;28;110099;-67
2023/08/27 03:30:32;;;;;;;5.72;5.32;;;;;;;28.25;45.54;94907.75;6103719;28;109933;-67
2023/08/27 03:33:35;;;;;;;5.60;5.20;;;;;;;28.25;45.40;94912.34;6114195;28;109923;-67
2023/08/27 03:36:38;;;;;;;5.47;5.07;;;;;;;28.25;45.16;94909.66;6113521;28;109951;-67
2023/08/27 03:39:43;;;;;;;5.57;5.17;;;;;;;28.24;45.30;94914.25;6114248;28;109845;-66
2023/08/27 03:42:46;;;;;;;5.80;5.40;;;;;;;28.24;45.23;94922.34;6104372;28;109775;-66
2023/08/27 03:45:49;;;;;;;5.68;5.28;;;;;;;28.24;45.53;94910.78;6114257;28;110233;-66
2023/08/27 03:48:52;;;;;;;5.60;5.20;;;;;;;28.24;45.25;94918.88;6113936;28;113145;-66
2023/08/27 03:51:55;;;;;;;5.60;5.20;;;;;;;28.24;45.48;94926.94;6104466;28;109784;-66
2023/08/27 03:55:00;;;;;;;5.50;5.10;;;;;;;28.23;45.50;94930.75;6112939;28;111677;-67
2023/08/27 03:58:03;;;;;;;5.90;5.50;;;;;;;28.21;45.40;94917.63;6113901;28;109818;-66
2023/08/27 04:01:06;;;;;;;5.40;5.00;;;;;;;28.20;45.21;94924.13;6113776;28;109840;-66
2023/08/27 04:04:10;;;;;;;5.40;5.00;;;;;;;28.21;45.41;94933.00;6094899;28;110158;-66
2023/08/27 04:07:13;;;;;;;5.68;5.28;;;;;;;28.22;45.53;94934.56;6109092;28;109908;-67
2023/08/27 04:10:18;;;;;;;5.60;5.20;;;;;;;28.21;45.50;94938.38;6113393;28;110263;-66
2023/08/27 04:13:21;;;;;;;5.70;5.30;;;;;;;28.20;45.64;94934.91;6113046;28;109883;-66
2023/08/27 04:16:25;;;;;;;5.30;4.90;;;;;;;28.20;45.14;94932.22;6102451;28;109763;-65
2023/08/27 04:19:28;;;;;;;5.30;4.90;;;;;;;28.20;45.43;94936.81;6112599;28;113398;-66
2023/08/27 04:22:31;;;;;;;5.50;5.10;;;;;;;28.20;45.59;94931.44;6112903;28;109944;-66
2023/08/27 04:25:36;;;;;;;5.70;5.30;;;;;;;28.19;45.95;94946.78;6108417;28;109793;-65
2023/08/27 04:28:39;;;;;;;5.50;5.10;;;;;;;28.19;45.69;94944.09;6108513;28;110488;-66
2023/08/27 04:31:43;;;;;;;5.78;5.38;;;;;;;28.20;45.63;94936.81;6113114;28;109910;-66
2023/08/27 04:34:46;;;;;;;5.18;4.78;;;;;;;28.20;45.85;94942.97;6112856;28;109466;-66
2023/08/27 04:37:49;;;;;;;5.25;4.85;;;;;;;28.19;45.58;94941.41;6085942;28;110277;-66
2023/08/27 04:40:54;;;;;;;5.30;4.90;;;;;;;28.19;45.42;94935.25;6112660;28;109783;-70
2023/08/27 04:43:57;;;;;;;5.43;5.03;;;;;;;28.20;45.14;94936.81;6112789;28;109932;-69
2023/08/27 04:47:02;;;;;;;5.30;4.90;;;;;;;28.19;45.08;94936.03;6112416;28;109853;-69
2023/08/27 04:50:06;;;;;;;5.40;5.00;;;;;;;28.19;45.61;94938.72;6101941;28;109894;-69
2023/08/27 04:53:09;;;;;;;5.18;4.78;;;;;;;28.20;45.71;94936.81;6112493;28;110751;-69
2023/08/27 04:56:13;;;;;;;5.40;5.00;;;;;;;28.19;45.65;94946.00;6112504;28;109946;-69
2023/08/27 04:59:17;;;;;;;4.80;4.50;;;;;;;28.19;45.22;94946.00;6111222;28;110537;-67
2023/08/27 05:02:20;;;;;;;5.23;4.83;;;;;;;28.20;45.61;94942.19;6105549;28;110317;-68
2023/08/27 05:05:23;;;;;;;5.47;5.07;;;;;;;28.20;45.65;94937.59;6112499;28;111664;-68
2023/08/27 05:08:26;;;;;;;5.05;4.68;;;;;;;28.19;45.38;94944.09;6111756;28;112647;-68
2023/08/27 05:11:31;;;;;;;5.10;4.80;;;;;;;28.21;45.69;94943.75;6101931;28;109867;-67
2023/08/27 05:14:34;;;;;;;4.88;4.57;;;;;;;28.19;45.37;94948.72;6111915;28;109766;-68
2023/08/27 05:17:37;;;;;;;5.10;4.70;;;;;;;28.21;45.23;94944.53;6112173;28;109764;-68
2023/08/27 05:20:40;;;;;;;5.30;4.90;;;;;;;28.19;45.25;94949.50;6111375;28;109843;-68
2023/08/27 05:23:43;;;;;;;5.10;4.70;;;;;;;28.19;45.27;94952.19;6101190;28;108825;-68
2023/08/27 05:26:48;;;;;;;5.00;4.60;;;;;;;28.21;45.64;94949.13;6112495;28;109818;-68
2023/08/27 05:29:51;;;;;;;5.10;4.70;;;;;;;28.22;44.93;94950.69;6111748;28;109773;-68
2023/08/27 05:32:54;;;;;;;5.33;4.93;;;;;;;28.23;45.48;94947.69;6102954;28;109786;-68
2023/08/27 05:35:57;;;;;;;5.07;4.70;;;;;;;28.23;45.38;94952.28;6101169;28;109938;-68
2023/08/27 05:39:00;;;;;;;5.00;4.60;;;;;;;28.23;45.51;94952.28;6111188;28;109998;-68
2023/08/27 05:42:05;;;;;;;4.80;4.50;;;;;;;28.26;45.41;94954.28;6112054;28;112800;-68
2023/08/27 05:45:09;;;;;;;4.75;4.45;;;;;;;28.33;44.99;94951.75;6106750;28;109374;-68
2023/08/27 05:48:12;;;;;;;4.72;4.32;;;;;;;28.42;44.59;94963.13;6106447;28;110879;-68
2023/08/27 05:51:15;;;;;;;5.30;4.90;;;;;;;28.49;45.11;94947.16;6111309;28;109777;-69
2023/08/27 05:54:19;;;;;;;4.80;4.40;;;;;;;28.56;44.43;94952.72;6111937;28;109851;-68
2023/08/27 05:57:23;;;;;;;4.90;4.50;;;;;;;28.65;44.34;94950.63;6100431;28;109784;-68
2023/08/27 06:00:27;;;;;;;4.85;4.47;;;;;;;28.73;44.41;94946.19;6111742;28;109869;-68
2023/08/27 06:03:30;;;;;;;4.63;4.33;;;;;;;28.80;44.38;94938.25;6111143;28;109749;-67
2023/08/27 06:06:33;;;;;;;4.87;4.57;;;;;;;28.87;44.29;94943.00;6111633;28;109610;-67
2023/08/27 06:09:36;;;;;;;4.80;4.40;;;;;;;28.93;44.26;94941.63;6099490;28;109904;-67
2023/08/27 06:12:41;;;;;;;4.87;4.47;;;;;;;28.98;43.82;94944.03;6111611;28;112793;-67
2023/08/27 06:15:44;;;;;;;4.40;4.10;;;;;;;29.05;43.80;94940.72;6111801;28;109979;-67
2023/08/27 06:18:47;;;;;;;4.80;4.40;;;;;;;29.13;43.75;94937.06;6110715;28;110429;-69
2023/08/27 06:21:50;;;;;;;4.70;4.40;;;;;;;29.17;43.51;94935.97;6101582;28;111979;-67
2023/08/27 06:24:53;;;;;;;4.60;4.30;;;;;;;29.23;43.37;94931.88;6111476;28;109990;-67
2023/08/27 06:27:58;;;;;;;5.07;4.68;;;;;;;29.27;43.77;94933.88;6111634;28;112014;-66
2023/08/27 06:31:02;;;;;;;4.72;4.35;;;;;;;29.30;43.67;94933.16;6101925;28;110034;-69
2023/08/27 06:34:05;;;;;;;4.90;4.60;;;;;;;29.36;43.21;94926.34;6110965;28;109738;-68
2023/08/27 06:37:08;;;;;;;4.50;4.20;;;;;;;29.41;43.20;94917.97;6111677;28;109557;-66
2023/08/27 06:40:13;;;;;;;4.70;4.40;;;;;;;29.45;43.60;94916.91;6109357;28;110709;-68
2023/08/27 06:43:18;;;;;;;4.80;4.40;;;;;;;29.48;43.01;94918.88;6099787;28;109953;-68
2023/08/27 06:46:21;;;;;;;4.35;4.05;;;;;;;29.55;42.91;94923.63;6110656;28;109790;-68
2023/08/27 06:49:24;;;;;;;4.50;4.20;;;;;;;29.58;43.05;94916.75;6111021;28;109510;-67
2023/08/27 06:52:28;;;;;;;4.50;4.20;;;;;;;29.63;42.83;94919.19;6110558;28;109924;-67
2023/08/27 06:55:31;;;;;;;5.10;4.70;;;;;;;29.65;42.74;94916.91;6100726;28;109897;-71
2023/08/27 06:58:35;;;;;;;4.50;4.20;;;;;;;29.70;42.81;94919.28;6110655;28;109874;-67
2023/08/27 07:01:39;;;;;;;4.47;4.07;;;;;;;29.73;42.79;94918.56;6110831;28;109828;-69
2023/08/27 07:04:43;;;;;;;4.53;4.22;;;;;;;29.75;42.73;94917.09;6105170;28;110974;-68
2023/08/27 07:07:46;;;;;;;4.25;3.95;;;;;;;29.77;42.80;94920.22;6104847;28;109950;-69
2023/08/27 07:10:49;;;;;;;4.60;4.30;;;;;;;29.82;42.57;94924.53;6093637;28;110091;-69
2023/08/27 07:13:54;;;;;;;4.50;4.20;;;;;;;29.85;42.50;94926.50;6110131;28;109944;-69
2023/08/27 07:16:58;;;;;;;4.50;4.20;;;;;;;29.89;42.59;94934.66;6099734;28;110356;-69
2023/08/27 07:20:01;;;;;;;4.70;4.40;;;;;;;29.91;42.63;94929.72;6110173;28;110369;-69
2023/08/27 07:23:04;;;;;;;4.50;4.20;;;;;;;29.95;42.39;94925.94;6109842;28;109784;-69
2023/08/27 07:26:07;;;;;;;4.50;4.20;;;;;;;29.98;42.54;94924.44;6110419;28;109676;-69
2023/08/27 07:29:12;;;;;;;4.30;4.00;;;;;;;29.99;42.41;94932.16;6099975;28;109805;-70
2023/08/27 07:32:16;;;;;;;4.47;4.17;;;;;;;30.02;42.33;94920.63;6110315;28;109952;-69
2023/08/27 07:35:19;;;;;;;4.30;4.00;;;;;;;30.05;42.15;94928.00;6110427;28;113367;-70
2023/08/27 07:38:24;;;;;;;4.40;4.10;;;;;;;30.06;42.34;94931.50;6107461;28;110111;-68
2023/08/27 07:41:27;;;;;;;4.55;4.18;;;;;;;30.09;42.27;94928.88;6103385;28;110957;-69
2023/08/27 07:44:32;;;;;;;4.32;4.03;;;;;;;30.10;42.07;94916.94;6109755;28;109975;-69
2023/08/27 07:47:36;;;;;;;4.45;4.15;;;;;;;30.11;42.19;94912.31;6109883;28;109818;-69
2023/08/27 07:50:39;;;;;;;4.50;4.20;;;;;;;30.13;42.27;94910.81;6099595;28;110124;-69
2023/08/27 07:53:42;;;;;;;4.30;4.00;;;;;;;30.18;42.27;94917.84;6111502;28;110319;-69
2023/08/27 07:56:45;;;;;;;4.40;4.10;;;;;;;30.19;42.06;94913.22;6113955;28;110192;-70
2023/08/27 07:59:51;;;;;;;4.57;4.27;;;;;;;30.20;42.12;94912.88;6113462;28;110757;-69
2023/08/27 08:02:54;;;;;;;4.50;4.20;;;;;;;30.20;42.07;94904.75;6102829;28;109852;-69
2023/08/27 08:05:57;;;;;;;4.45;4.10;;;;;;;30.23;41.91;94904.03;6113776;28;109706;-69
2023/08/27 08:09:00;;;;;;;4.20;3.90;;;;;;;30.25;42.11;94899.06;6113389;28;109800;-69
2023/08/27 08:12:04;;;;;;;4.70;4.30;;;;;;;30.25;42.08;94890.97;6113406;28;109533;-67
2023/08/27 08:15:09;;;;;;;4.50;4.13;;;;;;;30.25;42.29;94901.78;6103010;28;109615;-65
2023/08/27 08:18:13;;;;;;;4.37;4.07;;;;;;;30.28;42.09;94889.47;6113660;28;110480;-66
2023/08/27 08:21:16;;;;;;;4.20;3.90;;;;;;;30.29;41.95;94889.09;6108152;28;109733;-66
2023/08/27 08:24:19;;;;;;;4.30;4.00;;;;;;;30.29;41.65;94875.59;6095867;28;109905;-68
2023/08/27 08:27:22;;;;;;;4.35;4.05;;;;;;;30.31;41.85;94878.72;6108142;28;109700;-67
2023/08/27 08:30:27;;;;;;;4.20;3.90;;;;;;;30.35;42.17;94879.53;6113496;28;110268;-68
2023/08/27 08:33:30;;;;;;;4.30;4.00;;;;;;;30.35;41.66;94873.38;6113227;28;110307;-66
2023/08/27 08:36:33;;;;;;;4.22;3.92;;;;;;;30.36;42.26;94873.00;6102948;28;110728;-66
2023/08/27 08:39:36;;;;;;;4.60;4.20;;;;;;;30.37;41.76;94876.47;6112900;28;110162;-67
2023/08/27 08:42:47;;;;;;;4.20;3.90;;;;;;;30.38;41.62;94868.00;6112583;28;110259;-68
2023/08/27 08:46:00;;;;;;;4.30;4.00;;;;;;;30.37;42.11;94861.06;6112710;28;109362;-66
2023/08/27 08:49:04;;;;;;;4.17;3.87;;;;;;;30.42;41.53;94860.00;6102219;28;110020;-67
2023/08/27 08:52:09;;;;;;;4.40;4.10;;;;;;;30.41;42.16;94858.41;6097564;28;111173;-66
2023/08/27 08:55:16;;;;;;;4.40;4.10;;;;;;;30.42;41.93;94860.00;6112910;28;110633;-67
2023/08/27 08:58:21;;;;;;;4.15;3.85;;;;;;;30.42;42.17;94844.56;6108382;28;109765;-67
2023/08/27 09:01:26;;;;;;;4.40;4.10;;;;;;;30.40;42.26;94841.41;6107429;28;109815;-67
2023/08/27 09:04:29;;;;;;;4.40;4.10;;;;;;;30.42;41.96;94838.38;6112441;28;109920;-67
2023/08/27 09:07:34;;;;;;;4.40;4.10;;;;;;;30.43;41.78;94843.41;6113130;28;111096;-67
2023/08/27 09:10:37;;;;;;;4.00;3.70;;;;;;;30.42;41.76;94833.75;6101881;28;109777;-67
2023/08/27 09:13:40;;;;;;;4.30;4.00;;;;;;;30.45;42.10;94828.75;6112317;28;112898;-67
2023/08/27 09:16:45;;;;;;;4.23;3.93;;;;;;;30.46;41.84;94827.63;6113040;28;110007;-67
2023/08/27 09:19:50;;;;;;;4.20;3.90;;;;;;;30.43;41.89;94831.84;6112541;28;109568;-68
2023/08/27 09:22:54;;;;;;;4.30;4.00;;;;;;;30.43;42.26;94827.22;6102263;28;109961;-67
2023/08/27 09:26:00;;;;;;;4.20;3.90;;;;;;;30.45;42.38;94828.75;6112453;28;110234;-67
2023/08/27 09:29:05;;;;;;;4.10;3.80;;;;;;;30.43;41.70;94821.03;6112450;28;110250;-67
2023/08/27 09:32:20;;;;;;;4.00;3.70;;;;;;;30.41;41.69;94824.09;6107428;28;109809;-68
2023/08/27 09:35:24;;;;;;;4.05;3.75;;;;;;;30.44;41.91;94811.78;6107205;28;110176;-68
2023/08/27 09:38:28;;;;;;;4.20;3.90;;;;;;;30.42;42.19;94827.56;6112209;28;111286;-67
2023/08/27 09:41:31;;;;;;;4.10;3.80;;;;;;;30.44;41.93;94814.47;6111333;28;110227;-67
2023/08/27 09:44:34;;;;;;;4.30;3.90;;;;;;;30.42;42.04;94805.97;6100619;28;109985;-67
2023/08/27 09:47:40;;;;;;;4.13;3.83;;;;;;;30.42;41.88;94809.44;6111933;28;109883;-68
2023/08/27 09:50:43;;;;;;;4.10;3.80;;;;;;;30.41;42.32;94801.69;6112015;28;109534;-68
2023/08/27 09:53:46;;;;;;;3.78;3.47;;;;;;;30.42;41.97;94803.28;6111356;28;109802;-66
2023/08/27 09:56:52;;;;;;;4.00;3.70;;;;;;;30.42;42.30;94790.56;6101410;28;109653;-69
2023/08/27 09:59:55;;;;;;;4.13;3.83;;;;;;;30.40;42.11;94795.50;6111361;28;109948;-67
2023/08/27 10:03:00;;;;;;;3.80;3.50;;;;;;;30.39;42.28;94791.25;6111646;28;110344;-68
2023/08/27 10:06:03;;;;;;;4.10;3.80;;;;;;;30.37;42.23;94790.06;6110024;28;109739;-67
2023/08/27 10:09:07;;;;;;;4.07;3.70;;;;;;;30.37;42.00;94792.78;6103283;28;109927;-68
2023/08/27 10:12:12;;;;;;;4.03;3.73;;;;;;;30.37;42.30;94787.38;6111190;28;109902;-69
2023/08/27 10:15:17;;;;;;;4.10;3.80;;;;;;;30.34;42.32;94780.00;6109850;28;109948;-68
2023/08/27 10:18:22;;;;;;;3.80;3.50;;;;;;;30.35;41.92;94785.03;6100807;28;110259;-68
2023/08/27 10:21:25;;;;;;;3.70;3.40;;;;;;;30.34;42.29;94785.41;6110277;28;110188;-67
2023/08/27 10:24:30;;;;;;;4.37;4.07;;;;;;;30.33;42.21;94789.25;6110681;28;110411;-68
2023/08/27 10:27:34;;;;;;;3.70;3.40;;;;;;;30.29;42.35;94773.00;6111221;28;109936;-68
2023/08/27 10:30:38;;;;;;;4.65;4.10;;;;;;;30.26;42.51;94771.03;6099653;28;109704;-69
2023/08/27 10:33:42;;;;;;;4.03;3.72;;;;;;;30.26;42.53;94767.56;6111365;28;109372;-70
2023/08/27 10:36:46;;;;;;;3.92;3.63;;;;;;;30.24;42.55;94762.53;6107895;28;109807;-70
2023/08/27 10:39:50;;;;;;;4.00;3.70;;;;;;;30.26;42.50;94756.75;6110328;28;109805;-69
2023/08/27 10:43:07;;;;;;;3.92;3.63;;;;;;;30.21;42.66;94765.94;6100028;28;110485;-70
2023/08/27 10:46:11;;;;;;;3.88;3.58;;;;;;;30.20;42.63;94766.31;6109510;28;109905;-70
2023/08/27 10:49:18;;;;;;;3.88;3.58;;;;;;;30.20;42.49;94750.88;6111199;28;109578;-70
2023/08/27 10:52:27;;;;;;;3.78;3.47;;;;;;;30.18;42.62;94745.06;6096887;28;109987;-69
2023/08/27 10:55:35;;;;;;;3.90;3.60;;;;;;;30.16;42.60;94743.88;6110367;28;109436;-70
2023/08/27 10:58:42;;;;;;;4.10;3.80;;;;;;;30.17;42.74;94743.50;6110683;28;111130;-69
2023/08/27 11:02:07;;;;;;;3.90;3.50;;;;;;;30.13;42.60;94739.97;6110652;28;109483;-69
2023/08/27 11:05:13;;;;;;;4.00;3.70;;;;;;;30.11;42.91;94734.16;6085501;28;110066;-68
2023/08/27 11:08:16;;;;;;;3.80;3.50;;;;;;;30.10;42.93;94735.31;6110490;28;109839;-69
2023/08/27 11:11:25;;;;;;;4.30;3.80;;;;;;;30.08;43.13;94735.69;6110577;28;109854;-69
2023/08/27 11:14:28;;;;;;;3.90;3.60;;;;;;;30.08;43.01;94730.28;6105770;28;109687;-69
2023/08/27 11:17:31;;;;;;;3.90;3.60;;;;;;;30.06;42.72;94731.75;6104502;28;109960;-70
2023/08/27 11:20:36;;;;;;;3.72;3.42;;;;;;;30.06;42.83;94724.44;6109248;28;110311;-69
2023/08/27 11:23:45;;;;;;;3.80;3.50;;;;;;;30.01;43.21;94722.06;6110390;28;110718;-69
2023/08/27 11:26:49;;;;;;;3.60;3.30;;;;;;;30.01;42.97;94716.66;6097695;28;109503;-69
2023/08/27 11:29:55;;;;;;;3.63;3.33;;;;;;;30.01;42.90;94710.50;6114383;28;110017;-69
2023/08/27 11:32:58;;;;;;;4.00;3.70;;;;;;;30.00;42.83;94709.72;6114099;28;110156;-69
2023/08/27 11:36:04;;;;;;;3.75;3.45;;;;;;;29.99;43.20;94699.28;6114532;28;110253;-69
2023/08/27 11:39:07;;;;;;;3.78;3.47;;;;;;;29.98;43.15;94689.66;6103291;28;110320;-69
2023/08/27 11:42:11;;;;;;;3.60;3.30;;;;;;;29.96;43.23;94697.34;6114073;28;109978;-70
2023/08/27 11:45:15;;;;;;;4.00;3.70;;;;;;;29.95;43.19;94685.75;6113937;28;109913;-69
2023/08/27 11:48:18;;;;;;;3.60;3.30;;;;;;;29.94;43.27;94686.13;6111922;28;109971;-70
2023/08/27 11:51:25;;;;;;;4.03;3.72;;;;;;;29.91;43.44;94671.44;6106421;28;109824;-69
2023/08/27 11:54:31;;;;;;;3.42;3.20;;;;;;;29.89;43.19;94662.91;6113496;28;109589;-69
2023/08/27 11:57:35;;;;;;;4.15;3.85;;;;;;;29.91;43.44;94666.06;6113808;28;110049;-69
2023/08/27 12:00:42;;;;;;;4.00;3.70;;;;;;;29.89;43.19;94645.94;6103902;28;111341;-69
2023/08/27 12:03:48;;;;;;;3.77;3.37;;;;;;;29.86;43.26;94657.47;6113375;28;110091;-69
2023/08/27 12:06:56;;;;;;;3.67;3.38;;;;;;;29.86;43.22;94641.28;6113770;28;109621;-69
2023/08/27 12:10:08;;;;;;;3.58;3.28;;;;;;;29.89;42.82;94632.47;6113687;28;109808;-70
2023/08/27 12:13:12;;;;;;;3.87;3.57;;;;;;;29.88;43.37;94649.78;6102348;28;109953;-70
2023/08/27 12:16:18;;;;;;;3.60;3.30;;;;;;;29.86;43.50;94641.28;6113189;28;109940;-69
2023/08/27 12:19:23;;;;;;;4.00;3.70;;;;;;;29.85;43.29;94632.41;6112804;28;110415;-70
2023/08/27 12:22:28;;;;;;;5.50;5.00;;;;;;;29.76;43.34;94632.72;6112656;28;109787;-69
2023/08/27 12:25:45;;;;;;;9.13;8.23;;;;;;;29.72;41.69;94625.69;6089744;28;113077;-70
2023/08/27 12:28:53;;;;;;;10.57;8.90;;;;;;;29.78;40.98;94619.63;6112327;28;109940;-71
2023/08/27 12:31:58;;;;;;;8.82;7.10;;;;;;;29.86;38.26;94620.47;6113119;28;110873;-71
2023/08/27 12:35:01;;;;;;;10.82;8.15;;;;;;;29.74;39.70;94624.22;6101404;28;110026;-69
2023/08/27 12:38:06;;;;;;;10.07;7.78;;;;;;;29.60;40.39;94618.59;6110132;28;109910;-71
2023/08/27 12:41:09;;;;;;;8.73;7.80;;;;;;;28.67;40.67;94610.94;6110577;28;111869;-69
2023/08/27 12:44:12;;;;;;;11.60;8.50;;;;;;;27.46;41.08;94614.69;6113069;28;110263;-70
2023/08/27 12:47:15;;;;;;;13.57;7.67;;;;;;;27.08;40.70;94615.31;6102666;28;110266;-68
2023/08/27 12:50:18;;;;;;;11.80;7.43;;;;;;;26.44;41.00;94607.56;6109463;28;110108;-69
2023/08/27 12:53:23;;;;;;;10.00;6.77;;;;;;;26.17;40.88;94607.22;6109043;28;110204;-68
2023/08/27 12:56:26;;;;;;;11.40;7.07;;;;;;;25.80;40.42;94595.84;6111448;28;109755;-68
2023/08/27 12:59:29;;;;;;;10.73;8.70;;;;;;;25.78;40.05;94597.31;6100042;28;110021;-68
2023/08/27 13:02:32;;;;;;;12.23;8.20;;;;;;;25.88;39.75;94592.25;6110702;28;110166;-67
2023/08/27 13:05:36;;;;;;;14.50;10.80;;;;;;;25.81;39.14;94591.25;6107004;28;109738;-67
2023/08/27 13:08:40;;;;;;;14.27;12.40;;;;;;;25.69;37.84;94602.78;6103250;28;109689;-67
2023/08/27 13:11:43;;;;;;;16.27;14.70;;;;;;;25.52;38.16;94600.38;6109785;28;109815;-67
2023/08/27 13:14:47;;;;;;;15.90;14.50;;;;;;;25.12;38.25;94593.03;6100454;28;109913;-67
2023/08/27 13:17:50;;;;;;;16.00;14.63;;;;;;;25.05;37.76;94590.94;6111647;28;109770;-67
2023/08/27 13:20:53;;;;;;;15.07;13.70;;;;;;;24.93;37.18;94590.94;6094710;28;109998;-68
2023/08/27 13:23:59;;;;;;;16.23;14.90;;;;;;;25.02;36.92;94594.28;6110267;28;110591;-68
2023/08/27 13:27:02;;;;;;;16.70;15.00;;;;;;;25.16;36.78;94593.16;6108358;28;110499;-67
2023/08/27 13:30:06;;;;;;;17.30;15.70;;;;;;;25.07;36.75;94579.91;6109843;28;109822;-67
2023/08/27 13:33:09;;;;;;;17.23;15.73;;;;;;;25.12;36.44;94592.28;6102164;28;109831;-68
2023/08/27 13:36:13;;;;;;;17.42;15.75;;;;;;;24.98;35.99;94589.94;6101957;28;108853;-67
2023/08/27 13:39:17;;;;;;;17.25;15.65;;;;;;;24.88;36.78;94583.13;6105232;28;112238;-68
2023/08/27 13:42:20;;;;;;;16.75;15.25;;;;;;;24.72;36.45;94587.59;6106324;28;110012;-67
2023/08/27 13:45:24;;;;;;;16.30;14.80;;;;;;;24.70;36.50;94577.22;6105863;28;110224;-67
2023/08/27 13:48:27;;;;;;;16.27;14.77;;;;;;;24.87;36.28;94586.16;6109411;28;112674;-68
2023/08/27 13:51:30;;;;;;;16.30;14.80;;;;;;;24.49;36.73;94579.94;6099945;28;110878;-67
2023/08/27 13:54:35;;;;;;;17.63;16.00;;;;;;;24.66;37.21;94581.63;6099563;28;109873;-67
2023/08/27 13:57:38;;;;;;;17.63;16.23;;;;;;;24.47;36.52;94579.50;6109385;28;110267;-67
2023/08/27 14:00:41;;;;;;;17.30;15.77;;;;;;;24.65;36.60;94582.75;6108854;28;110173;-67
2023/08/27 14:03:44;;;;;;;16.48;14.98;;;;;;;24.57;35.85;94580.97;6107052;28;110093;-63
2023/08/27 14:06:47;;;;;;;14.68;13.30;;;;;;;24.42;36.41;94577.03;6089820;28;109870;-62
2023/08/27 14:09:52;;;;;;;14.93;13.43;;;;;;;24.32;36.13;94582.78;6105873;28;109575;-61
2023/08/27 14:12:55;;;;;;;12.93;11.73;;;;;;;24.26;35.89;94576.09;6110880;28;110165;-62
2023/08/27 14:15:58;;;;;;;14.03;12.83;;;;;;;24.50;35.58;94572.69;6109613;28;109848;-61